sensor_id;sensor_type;location;lat;lon;timestamp;P1;durP1;ratioP1;P2;durP2;ratioP2
15699;SDS011;7950;42.744;23.174;2023-05-07T00:02:20;7.07;;;6.37;;
15699;SDS011;7950;42.744;23.174;2023-05-07T00:04:50;6.97;;;5.93;;
15699;SDS011;7950;42.744;23.174;2023-05-07T00:07:19;7.60;;;6.87;;
15699;SDS011;7950;42.744;23.174;2023-05-07T00:09:53;7.40;;;6.70;;
15699;SDS011;7950;42.744;23.174;2023-05-07T00:12:22;11.83;;;6.60;;
15699;SDS011;7950;42.744;23.174;2023-05-07T00:14:50;7.33;;;5.97;;
15699;SDS011;7950;42.744;23.174;2023-05-07T00:17:19;6.97;;;6.13;;
15699;SDS011;7950;42.744;23.174;2023-05-07T00:19:47;7.07;;;5.83;;
15699;SDS011;7950;42.744;23.174;2023-05-07T00:22:17;9.43;;;6.97;;
15699;SDS011;7950;42.744;23.174;2023-05-07T00:24:46;7.07;;;6.37;;
15699;SDS011;7950;42.744;23.174;2023-05-07T00:27:14;7.10;;;6.40;;
15699;SDS011;7950;42.744;23.174;2023-05-07T00:29:43;8.47;;;6.37;;
15699;SDS011;7950;42.744;23.174;2023-05-07T00:32:12;8.77;;;6.30;;
15699;SDS011;7950;42.744;23.174;2023-05-07T00:34:41;7.60;;;6.30;;
15699;SDS011;7950;42.744;23.174;2023-05-07T00:37:10;8.47;;;6.33;;
15699;SDS011;7950;42.744;23.174;2023-05-07T00:39:41;7.50;;;6.67;;
15699;SDS011;7950;42.744;23.174;2023-05-07T00:42:09;6.63;;;5.90;;
15699;SDS011;7950;42.744;23.174;2023-05-07T00:44:38;7.40;;;6.60;;
15699;SDS011;7950;42.744;23.174;2023-05-07T00:47:06;9.50;;;6.73;;
15699;SDS011;7950;42.744;23.174;2023-05-07T00:49:37;9.73;;;6.70;;
15699;SDS011;7950;42.744;23.174;2023-05-07T00:52:09;7.17;;;6.20;;
15699;SDS011;7950;42.744;23.174;2023-05-07T00:54:43;8.77;;;6.57;;
15699;SDS011;7950;42.744;23.174;2023-05-07T00:57:12;8.57;;;7.40;;
15699;SDS011;7950;42.744;23.174;2023-05-07T00:59:40;7.83;;;7.03;;
15699;SDS011;7950;42.744;23.174;2023-05-07T01:02:10;6.77;;;6.13;;
15699;SDS011;7950;42.744;23.174;2023-05-07T01:04:38;8.37;;;6.63;;
15699;SDS011;7950;42.744;23.174;2023-05-07T01:07:07;7.23;;;6.53;;
15699;SDS011;7950;42.744;23.174;2023-05-07T01:09:37;7.93;;;6.90;;
15699;SDS011;7950;42.744;23.174;2023-05-07T01:15:03;6.17;;;5.57;;
15699;SDS011;7950;42.744;23.174;2023-05-07T01:17:33;7.90;;;5.87;;
15699;SDS011;7950;42.744;23.174;2023-05-07T01:20:04;8.97;;;6.03;;
15699;SDS011;7950;42.744;23.174;2023-05-07T01:22:36;7.23;;;6.03;;
15699;SDS011;7950;42.744;23.174;2023-05-07T01:25:06;6.23;;;5.63;;
15699;SDS011;7950;42.744;23.174;2023-05-07T01:30:29;9.50;;;6.30;;
15699;SDS011;7950;42.744;23.174;2023-05-07T01:32:59;8.53;;;7.10;;
15699;SDS011;7950;42.744;23.174;2023-05-07T01:35:36;6.93;;;6.07;;
15699;SDS011;7950;42.744;23.174;2023-05-07T01:38:11;9.43;;;6.13;;
15699;SDS011;7950;42.744;23.174;2023-05-07T01:40:40;6.10;;;5.50;;
15699;SDS011;7950;42.744;23.174;2023-05-07T01:43:10;7.00;;;6.30;;
15699;SDS011;7950;42.744;23.174;2023-05-07T01:45:39;7.93;;;6.00;;
15699;SDS011;7950;42.744;23.174;2023-05-07T01:48:09;6.27;;;5.73;;
15699;SDS011;7950;42.744;23.174;2023-05-07T01:50:40;5.97;;;5.37;;
15699;SDS011;7950;42.744;23.174;2023-05-07T01:53:12;6.70;;;6.00;;
15699;SDS011;7950;42.744;23.174;2023-05-07T01:55:44;6.67;;;6.07;;
15699;SDS011;7950;42.744;23.174;2023-05-07T01:58:12;8.40;;;6.57;;
15699;SDS011;7950;42.744;23.174;2023-05-07T02:00:41;7.77;;;6.17;;
15699;SDS011;7950;42.744;23.174;2023-05-07T02:03:09;6.90;;;6.03;;
15699;SDS011;7950;42.744;23.174;2023-05-07T02:05:38;8.17;;;6.63;;
15699;SDS011;7950;42.744;23.174;2023-05-07T02:08:06;6.50;;;5.90;;
15699;SDS011;7950;42.744;23.174;2023-05-07T02:10:36;7.30;;;5.77;;
15699;SDS011;7950;42.744;23.174;2023-05-07T02:13:05;6.10;;;5.57;;
15699;SDS011;7950;42.744;23.174;2023-05-07T02:15:34;8.50;;;6.30;;
15699;SDS011;7950;42.744;23.174;2023-05-07T02:18:03;6.90;;;5.60;;
15699;SDS011;7950;42.744;23.174;2023-05-07T02:20:34;6.60;;;6.00;;
15699;SDS011;7950;42.744;23.174;2023-05-07T02:23:03;7.50;;;5.93;;
15699;SDS011;7950;42.744;23.174;2023-05-07T02:25:31;6.40;;;5.73;;
15699;SDS011;7950;42.744;23.174;2023-05-07T02:28:01;6.70;;;6.03;;
15699;SDS011;7950;42.744;23.174;2023-05-07T02:30:31;6.13;;;5.53;;
15699;SDS011;7950;42.744;23.174;2023-05-07T02:33:00;7.13;;;6.33;;
15699;SDS011;7950;42.744;23.174;2023-05-07T02:35:28;8.20;;;5.90;;
15699;SDS011;7950;42.744;23.174;2023-05-07T02:38:02;7.73;;;6.40;;
15699;SDS011;7950;42.744;23.174;2023-05-07T02:40:30;9.27;;;7.67;;
15699;SDS011;7950;42.744;23.174;2023-05-07T02:43:06;7.30;;;6.50;;
15699;SDS011;7950;42.744;23.174;2023-05-07T02:45:35;8.73;;;6.40;;
15699;SDS011;7950;42.744;23.174;2023-05-07T02:48:09;8.97;;;7.80;;
15699;SDS011;7950;42.744;23.174;2023-05-07T02:50:37;8.10;;;7.30;;
15699;SDS011;7950;42.744;23.174;2023-05-07T02:53:06;9.87;;;6.80;;
15699;SDS011;7950;42.744;23.174;2023-05-07T02:55:34;8.27;;;7.37;;
15699;SDS011;7950;42.744;23.174;2023-05-07T02:58:03;10.33;;;7.63;;
15699;SDS011;7950;42.744;23.174;2023-05-07T03:00:33;8.10;;;7.30;;
15699;SDS011;7950;42.744;23.174;2023-05-07T03:03:02;8.53;;;6.97;;
15699;SDS011;7950;42.744;23.174;2023-05-07T03:05:30;8.27;;;6.63;;
15699;SDS011;7950;42.744;23.174;2023-05-07T03:07:59;8.30;;;7.03;;
15699;SDS011;7950;42.744;23.174;2023-05-07T03:10:27;9.57;;;6.40;;
15699;SDS011;7950;42.744;23.174;2023-05-07T03:12:56;10.97;;;7.40;;
15699;SDS011;7950;42.744;23.174;2023-05-07T03:15:24;7.40;;;6.60;;
15699;SDS011;7950;42.744;23.174;2023-05-07T03:17:54;8.23;;;6.90;;
15699;SDS011;7950;42.744;23.174;2023-05-07T03:20:23;7.67;;;6.87;;
15699;SDS011;7950;42.744;23.174;2023-05-07T03:22:51;8.00;;;7.20;;
15699;SDS011;7950;42.744;23.174;2023-05-07T03:25:20;8.63;;;7.47;;
15699;SDS011;7950;42.744;23.174;2023-05-07T03:27:49;8.30;;;6.20;;
15699;SDS011;7950;42.744;23.174;2023-05-07T03:30:17;8.23;;;6.80;;
15699;SDS011;7950;42.744;23.174;2023-05-07T03:32:46;8.03;;;6.50;;
15699;SDS011;7950;42.744;23.174;2023-05-07T03:35:16;7.73;;;6.90;;
15699;SDS011;7950;42.744;23.174;2023-05-07T03:37:45;9.27;;;7.80;;
15699;SDS011;7950;42.744;23.174;2023-05-07T03:40:13;9.93;;;7.80;;
15699;SDS011;7950;42.744;23.174;2023-05-07T03:42:42;9.70;;;7.20;;
15699;SDS011;7950;42.744;23.174;2023-05-07T03:45:11;10.47;;;7.70;;
15699;SDS011;7950;42.744;23.174;2023-05-07T03:47:39;8.47;;;7.67;;
15699;SDS011;7950;42.744;23.174;2023-05-07T03:50:09;9.00;;;7.40;;
15699;SDS011;7950;42.744;23.174;2023-05-07T03:52:39;13.73;;;7.03;;
15699;SDS011;7950;42.744;23.174;2023-05-07T03:55:08;7.23;;;6.50;;
15699;SDS011;7950;42.744;23.174;2023-05-07T03:57:37;9.47;;;7.33;;
15699;SDS011;7950;42.744;23.174;2023-05-07T04:00:06;7.87;;;6.73;;
15699;SDS011;7950;42.744;23.174;2023-05-07T04:02:36;8.63;;;7.70;;
15699;SDS011;7950;42.744;23.174;2023-05-07T04:08:25;9.83;;;7.97;;
15699;SDS011;7950;42.744;23.174;2023-05-07T04:10:56;9.33;;;7.73;;
15699;SDS011;7950;42.744;23.174;2023-05-07T04:13:26;8.80;;;7.90;;
15699;SDS011;7950;42.744;23.174;2023-05-07T04:15:55;7.90;;;7.10;;
15699;SDS011;7950;42.744;23.174;2023-05-07T04:18:26;8.90;;;7.77;;
15699;SDS011;7950;42.744;23.174;2023-05-07T04:20:55;9.73;;;8.20;;
15699;SDS011;7950;42.744;23.174;2023-05-07T04:23:25;10.13;;;8.23;;
15699;SDS011;7950;42.744;23.174;2023-05-07T04:25:53;10.20;;;8.33;;
15699;SDS011;7950;42.744;23.174;2023-05-07T04:28:22;9.33;;;7.90;;
15699;SDS011;7950;42.744;23.174;2023-05-07T04:30:52;8.83;;;7.77;;
15699;SDS011;7950;42.744;23.174;2023-05-07T04:33:20;11.77;;;7.67;;
15699;SDS011;7950;42.744;23.174;2023-05-07T04:35:49;8.13;;;7.30;;
15699;SDS011;7950;42.744;23.174;2023-05-07T04:38:17;8.10;;;7.27;;
15699;SDS011;7950;42.744;23.174;2023-05-07T04:40:47;11.03;;;7.97;;
15699;SDS011;7950;42.744;23.174;2023-05-07T04:43:16;9.67;;;7.60;;
15699;SDS011;7950;42.744;23.174;2023-05-07T04:45:45;9.70;;;6.90;;
15699;SDS011;7950;42.744;23.174;2023-05-07T04:48:13;9.87;;;7.50;;
15699;SDS011;7950;42.744;23.174;2023-05-07T04:50:42;8.47;;;7.30;;
15699;SDS011;7950;42.744;23.174;2023-05-07T04:53:11;9.77;;;7.70;;
15699;SDS011;7950;42.744;23.174;2023-05-07T04:55:39;9.13;;;7.57;;
15699;SDS011;7950;42.744;23.174;2023-05-07T04:58:09;11.40;;;9.63;;
15699;SDS011;7950;42.744;23.174;2023-05-07T05:00:38;10.70;;;7.80;;
15699;SDS011;7950;42.744;23.174;2023-05-07T05:03:08;10.10;;;8.27;;
15699;SDS011;7950;42.744;23.174;2023-05-07T05:05:37;10.10;;;8.73;;
15699;SDS011;7950;42.744;23.174;2023-05-07T05:08:06;13.07;;;10.43;;
15699;SDS011;7950;42.744;23.174;2023-05-07T05:10:34;10.73;;;9.00;;
15699;SDS011;7950;42.744;23.174;2023-05-07T05:13:03;12.83;;;11.07;;
15699;SDS011;7950;42.744;23.174;2023-05-07T05:15:33;12.23;;;10.13;;
15699;SDS011;7950;42.744;23.174;2023-05-07T05:18:02;11.83;;;10.30;;
15699;SDS011;7950;42.744;23.174;2023-05-07T05:20:30;12.63;;;10.13;;
15699;SDS011;7950;42.744;23.174;2023-05-07T05:22:59;11.70;;;10.23;;
15699;SDS011;7950;42.744;23.174;2023-05-07T05:25:28;9.73;;;8.60;;
15699;SDS011;7950;42.744;23.174;2023-05-07T05:27:57;13.10;;;10.53;;
15699;SDS011;7950;42.744;23.174;2023-05-07T05:30:25;12.13;;;10.23;;
15699;SDS011;7950;42.744;23.174;2023-05-07T05:32:55;11.83;;;10.03;;
15699;SDS011;7950;42.744;23.174;2023-05-07T05:35:23;13.50;;;9.63;;
15699;SDS011;7950;42.744;23.174;2023-05-07T05:37:52;11.17;;;10.00;;
15699;SDS011;7950;42.744;23.174;2023-05-07T05:40:21;11.13;;;10.03;;
15699;SDS011;7950;42.744;23.174;2023-05-07T05:42:49;11.77;;;10.20;;
15699;SDS011;7950;42.744;23.174;2023-05-07T05:45:18;11.97;;;10.13;;
15699;SDS011;7950;42.744;23.174;2023-05-07T05:47:46;11.27;;;9.50;;
15699;SDS011;7950;42.744;23.174;2023-05-07T05:50:16;11.47;;;9.70;;
15699;SDS011;7950;42.744;23.174;2023-05-07T05:52:49;12.37;;;9.77;;
15699;SDS011;7950;42.744;23.174;2023-05-07T05:55:18;12.70;;;10.57;;
15699;SDS011;7950;42.744;23.174;2023-05-07T05:57:47;11.40;;;9.87;;
15699;SDS011;7950;42.744;23.174;2023-05-07T06:00:16;11.40;;;10.13;;
15699;SDS011;7950;42.744;23.174;2023-05-07T06:02:45;11.93;;;10.67;;
15699;SDS011;7950;42.744;23.174;2023-05-07T06:05:14;11.90;;;10.63;;
15699;SDS011;7950;42.744;23.174;2023-05-07T06:07:49;11.80;;;10.60;;
15699;SDS011;7950;42.744;23.174;2023-05-07T06:10:17;11.67;;;10.23;;
15699;SDS011;7950;42.744;23.174;2023-05-07T06:12:46;13.10;;;10.47;;
15699;SDS011;7950;42.744;23.174;2023-05-07T06:15:33;11.67;;;9.90;;
15699;SDS011;7950;42.744;23.174;2023-05-07T06:18:01;11.63;;;10.43;;
15699;SDS011;7950;42.744;23.174;2023-05-07T06:20:30;11.27;;;10.10;;
15699;SDS011;7950;42.744;23.174;2023-05-07T06:23:00;11.93;;;10.73;;
15699;SDS011;7950;42.744;23.174;2023-05-07T06:25:28;13.17;;;10.23;;
15699;SDS011;7950;42.744;23.174;2023-05-07T06:27:57;12.87;;;9.73;;
15699;SDS011;7950;42.744;23.174;2023-05-07T06:30:25;12.93;;;10.03;;
15699;SDS011;7950;42.744;23.174;2023-05-07T06:32:54;11.60;;;10.40;;
15699;SDS011;7950;42.744;23.174;2023-05-07T06:35:23;11.20;;;10.10;;
15699;SDS011;7950;42.744;23.174;2023-05-07T06:37:51;11.10;;;9.93;;
15699;SDS011;7950;42.744;23.174;2023-05-07T06:40:21;11.30;;;10.03;;
15699;SDS011;7950;42.744;23.174;2023-05-07T06:42:49;10.90;;;9.80;;
15699;SDS011;7950;42.744;23.174;2023-05-07T06:45:34;11.93;;;9.70;;
15699;SDS011;7950;42.744;23.174;2023-05-07T06:48:02;12.07;;;9.33;;
15699;SDS011;7950;42.744;23.174;2023-05-07T06:50:32;11.00;;;9.87;;
15699;SDS011;7950;42.744;23.174;2023-05-07T06:53:05;11.53;;;9.67;;
15699;SDS011;7950;42.744;23.174;2023-05-07T06:55:35;12.40;;;8.70;;
15699;SDS011;7950;42.744;23.174;2023-05-07T06:58:04;10.37;;;8.53;;
15699;SDS011;7950;42.744;23.174;2023-05-07T07:00:33;10.60;;;9.43;;
15699;SDS011;7950;42.744;23.174;2023-05-07T07:05:55;15.27;;;10.13;;
15699;SDS011;7950;42.744;23.174;2023-05-07T07:08:23;11.43;;;9.33;;
15699;SDS011;7950;42.744;23.174;2023-05-07T07:10:53;11.30;;;9.17;;
15699;SDS011;7950;42.744;23.174;2023-05-07T07:13:22;32.53;;;10.00;;
15699;SDS011;7950;42.744;23.174;2023-05-07T07:15:51;27.10;;;11.10;;
15699;SDS011;7950;42.744;23.174;2023-05-07T07:18:20;12.50;;;8.87;;
15699;SDS011;7950;42.744;23.174;2023-05-07T07:20:48;9.70;;;8.70;;
15699;SDS011;7950;42.744;23.174;2023-05-07T07:23:17;10.80;;;9.43;;
15699;SDS011;7950;42.744;23.174;2023-05-07T07:25:45;11.67;;;9.00;;
15699;SDS011;7950;42.744;23.174;2023-05-07T07:28:16;11.37;;;8.63;;
15699;SDS011;7950;42.744;23.174;2023-05-07T07:30:45;9.67;;;8.67;;
15699;SDS011;7950;42.744;23.174;2023-05-07T07:33:14;12.90;;;8.60;;
15699;SDS011;7950;42.744;23.174;2023-05-07T07:35:42;9.60;;;7.80;;
15699;SDS011;7950;42.744;23.174;2023-05-07T07:41:04;8.30;;;7.47;;
15699;SDS011;7950;42.744;23.174;2023-05-07T07:43:34;9.13;;;7.70;;
15699;SDS011;7950;42.744;23.174;2023-05-07T07:46:03;8.83;;;7.67;;
15699;SDS011;7950;42.744;23.174;2023-05-07T07:48:31;10.37;;;7.93;;
15699;SDS011;7950;42.744;23.174;2023-05-07T07:51:02;9.20;;;7.20;;
15699;SDS011;7950;42.744;23.174;2023-05-07T07:53:31;8.37;;;6.77;;
15699;SDS011;7950;42.744;23.174;2023-05-07T07:55:59;8.47;;;7.67;;
15699;SDS011;7950;42.744;23.174;2023-05-07T07:58:31;11.53;;;8.03;;
15699;SDS011;7950;42.744;23.174;2023-05-07T08:01:03;10.83;;;8.50;;
15699;SDS011;7950;42.744;23.174;2023-05-07T08:03:31;8.33;;;7.30;;
15699;SDS011;7950;42.744;23.174;2023-05-07T08:06:00;8.00;;;7.23;;
15699;SDS011;7950;42.744;23.174;2023-05-07T08:08:29;9.60;;;7.87;;
15699;SDS011;7950;42.744;23.174;2023-05-07T08:10:57;7.20;;;6.53;;
15699;SDS011;7950;42.744;23.174;2023-05-07T08:13:26;8.63;;;6.80;;
15699;SDS011;7950;42.744;23.174;2023-05-07T08:15:54;9.97;;;7.00;;
15699;SDS011;7950;42.744;23.174;2023-05-07T08:18:24;7.40;;;5.93;;
15699;SDS011;7950;42.744;23.174;2023-05-07T08:20:54;7.00;;;6.33;;
15699;SDS011;7950;42.744;23.174;2023-05-07T08:23:23;8.17;;;6.17;;
15699;SDS011;7950;42.744;23.174;2023-05-07T08:25:52;7.30;;;5.67;;
15699;SDS011;7950;42.744;23.174;2023-05-07T08:28:21;8.33;;;5.73;;
15699;SDS011;7950;42.744;23.174;2023-05-07T08:30:51;8.23;;;5.17;;
15699;SDS011;7950;42.744;23.174;2023-05-07T08:33:20;7.40;;;5.50;;
15699;SDS011;7950;42.744;23.174;2023-05-07T08:35:49;7.60;;;5.00;;
15699;SDS011;7950;42.744;23.174;2023-05-07T08:38:18;6.03;;;5.43;;
15699;SDS011;7950;42.744;23.174;2023-05-07T08:40:47;5.60;;;5.10;;
15699;SDS011;7950;42.744;23.174;2023-05-07T08:43:15;6.03;;;5.40;;
15699;SDS011;7950;42.744;23.174;2023-05-07T08:45:47;6.63;;;5.40;;
15699;SDS011;7950;42.744;23.174;2023-05-07T08:51:17;6.73;;;5.43;;
15699;SDS011;7950;42.744;23.174;2023-05-07T08:53:48;7.67;;;5.50;;
15699;SDS011;7950;42.744;23.174;2023-05-07T08:56:17;7.10;;;5.70;;
15699;SDS011;7950;42.744;23.174;2023-05-07T08:58:48;6.70;;;6.10;;
15699;SDS011;7950;42.744;23.174;2023-05-07T09:01:16;6.87;;;5.90;;
15699;SDS011;7950;42.744;23.174;2023-05-07T09:03:45;6.23;;;5.20;;
15699;SDS011;7950;42.744;23.174;2023-05-07T09:06:15;5.37;;;4.87;;
15699;SDS011;7950;42.744;23.174;2023-05-07T09:08:48;5.50;;;5.00;;
15699;SDS011;7950;42.744;23.174;2023-05-07T09:11:19;5.13;;;4.53;;
15699;SDS011;7950;42.744;23.174;2023-05-07T09:13:51;6.73;;;4.70;;
15699;SDS011;7950;42.744;23.174;2023-05-07T09:16:23;5.27;;;4.40;;
15699;SDS011;7950;42.744;23.174;2023-05-07T09:18:53;5.23;;;4.73;;
15699;SDS011;7950;42.744;23.174;2023-05-07T09:21:24;5.30;;;4.80;;
15699;SDS011;7950;42.744;23.174;2023-05-07T09:23:54;4.63;;;4.23;;
15699;SDS011;7950;42.744;23.174;2023-05-07T09:26:24;6.40;;;4.73;;
15699;SDS011;7950;42.744;23.174;2023-05-07T09:28:54;5.23;;;4.50;;
15699;SDS011;7950;42.744;23.174;2023-05-07T09:31:23;4.90;;;4.20;;
15699;SDS011;7950;42.744;23.174;2023-05-07T09:33:52;5.10;;;4.30;;
15699;SDS011;7950;42.744;23.174;2023-05-07T09:36:23;5.80;;;4.70;;
15699;SDS011;7950;42.744;23.174;2023-05-07T09:38:52;5.80;;;3.97;;
15699;SDS011;7950;42.744;23.174;2023-05-07T09:41:21;9.57;;;7.47;;
15699;SDS011;7950;42.744;23.174;2023-05-07T09:43:53;6.87;;;4.63;;
15699;SDS011;7950;42.744;23.174;2023-05-07T09:46:24;4.67;;;4.10;;
15699;SDS011;7950;42.744;23.174;2023-05-07T09:48:58;5.13;;;4.17;;
15699;SDS011;7950;42.744;23.174;2023-05-07T09:54:37;4.23;;;3.83;;
15699;SDS011;7950;42.744;23.174;2023-05-07T09:57:06;4.20;;;3.80;;
15699;SDS011;7950;42.744;23.174;2023-05-07T09:59:38;7.57;;;4.00;;
15699;SDS011;7950;42.744;23.174;2023-05-07T10:02:10;6.33;;;3.87;;
15699;SDS011;7950;42.744;23.174;2023-05-07T10:04:41;4.30;;;3.90;;
15699;SDS011;7950;42.744;23.174;2023-05-07T10:07:20;6.43;;;4.10;;
15699;SDS011;7950;42.744;23.174;2023-05-07T10:09:50;7.13;;;4.17;;
15699;SDS011;7950;42.744;23.174;2023-05-07T10:12:20;3.97;;;3.27;;
15699;SDS011;7950;42.744;23.174;2023-05-07T10:14:50;3.67;;;3.37;;
15699;SDS011;7950;42.744;23.174;2023-05-07T10:17:22;4.87;;;3.67;;
15699;SDS011;7950;42.744;23.174;2023-05-07T10:19:52;3.40;;;3.13;;
15699;SDS011;7950;42.744;23.174;2023-05-07T10:22:23;6.67;;;4.00;;
15699;SDS011;7950;42.744;23.174;2023-05-07T10:24:54;3.40;;;3.10;;
15699;SDS011;7950;42.744;23.174;2023-05-07T10:27:27;3.97;;;3.40;;
15699;SDS011;7950;42.744;23.174;2023-05-07T10:29:58;5.00;;;3.43;;
15699;SDS011;7950;42.744;23.174;2023-05-07T10:32:40;4.37;;;3.23;;
15699;SDS011;7950;42.744;23.174;2023-05-07T10:35:14;3.70;;;3.40;;
15699;SDS011;7950;42.744;23.174;2023-05-07T10:40:45;3.40;;;3.10;;
15699;SDS011;7950;42.744;23.174;2023-05-07T10:43:14;3.83;;;3.13;;
15699;SDS011;7950;42.744;23.174;2023-05-07T10:51:39;3.90;;;3.40;;
15699;SDS011;7950;42.744;23.174;2023-05-07T10:54:21;4.53;;;3.17;;
15699;SDS011;7950;42.744;23.174;2023-05-07T10:56:51;3.90;;;3.50;;
15699;SDS011;7950;42.744;23.174;2023-05-07T11:02:13;4.83;;;3.30;;
15699;SDS011;7950;42.744;23.174;2023-05-07T11:04:42;3.80;;;3.40;;
15699;SDS011;7950;42.744;23.174;2023-05-07T11:07:24;3.73;;;3.10;;
15699;SDS011;7950;42.744;23.174;2023-05-07T11:09:59;4.07;;;3.50;;
15699;SDS011;7950;42.744;23.174;2023-05-07T11:12:50;3.13;;;2.87;;
15699;SDS011;7950;42.744;23.174;2023-05-07T11:15:36;4.60;;;3.30;;
15699;SDS011;7950;42.744;23.174;2023-05-07T11:18:08;4.27;;;3.27;;
15699;SDS011;7950;42.744;23.174;2023-05-07T11:20:44;3.70;;;2.93;;
15699;SDS011;7950;42.744;23.174;2023-05-07T11:23:55;3.80;;;3.40;;
15699;SDS011;7950;42.744;23.174;2023-05-07T11:26:29;3.97;;;3.10;;
15699;SDS011;7950;42.744;23.174;2023-05-07T11:29:13;3.57;;;3.20;;
15699;SDS011;7950;42.744;23.174;2023-05-07T11:31:50;3.53;;;3.23;;
15699;SDS011;7950;42.744;23.174;2023-05-07T11:34:21;7.73;;;3.63;;
15699;SDS011;7950;42.744;23.174;2023-05-07T11:36:51;4.07;;;3.17;;
15699;SDS011;7950;42.744;23.174;2023-05-07T11:39:28;4.00;;;3.33;;
15699;SDS011;7950;42.744;23.174;2023-05-07T11:42:05;3.67;;;2.90;;
15699;SDS011;7950;42.744;23.174;2023-05-07T11:44:45;3.27;;;2.97;;
15699;SDS011;7950;42.744;23.174;2023-05-07T11:47:17;4.00;;;2.80;;
15699;SDS011;7950;42.744;23.174;2023-05-07T11:49:47;3.87;;;2.93;;
15699;SDS011;7950;42.744;23.174;2023-05-07T11:52:16;4.50;;;3.10;;
15699;SDS011;7950;42.744;23.174;2023-05-07T11:54:48;3.37;;;3.07;;
15699;SDS011;7950;42.744;23.174;2023-05-07T11:57:18;3.50;;;3.00;;
15699;SDS011;7950;42.744;23.174;2023-05-07T11:59:47;3.00;;;2.80;;
15699;SDS011;7950;42.744;23.174;2023-05-07T12:05:13;5.63;;;3.30;;
15699;SDS011;7950;42.744;23.174;2023-05-07T12:07:41;3.50;;;3.07;;
15699;SDS011;7950;42.744;23.174;2023-05-07T12:10:11;3.63;;;3.00;;
15699;SDS011;7950;42.744;23.174;2023-05-07T12:12:46;3.23;;;2.93;;
15699;SDS011;7950;42.744;23.174;2023-05-07T12:15:15;3.33;;;3.03;;
15699;SDS011;7950;42.744;23.174;2023-05-07T12:17:44;4.33;;;3.00;;
15699;SDS011;7950;42.744;23.174;2023-05-07T12:20:13;4.20;;;3.20;;
15699;SDS011;7950;42.744;23.174;2023-05-07T12:22:42;3.67;;;3.37;;
15699;SDS011;7950;42.744;23.174;2023-05-07T12:25:11;3.40;;;3.10;;
15699;SDS011;7950;42.744;23.174;2023-05-07T12:27:42;3.53;;;2.97;;
15699;SDS011;7950;42.744;23.174;2023-05-07T12:30:12;3.67;;;3.37;;
15699;SDS011;7950;42.744;23.174;2023-05-07T12:32:41;3.23;;;2.87;;
15699;SDS011;7950;42.744;23.174;2023-05-07T12:35:12;3.47;;;3.00;;
15699;SDS011;7950;42.744;23.174;2023-05-07T12:37:41;3.70;;;3.13;;
15699;SDS011;7950;42.744;23.174;2023-05-07T12:40:10;3.30;;;3.00;;
15699;SDS011;7950;42.744;23.174;2023-05-07T12:42:40;5.03;;;3.40;;
15699;SDS011;7950;42.744;23.174;2023-05-07T12:45:09;3.40;;;3.10;;
15699;SDS011;7950;42.744;23.174;2023-05-07T12:47:43;3.57;;;3.27;;
15699;SDS011;7950;42.744;23.174;2023-05-07T12:50:12;4.10;;;3.20;;
15699;SDS011;7950;42.744;23.174;2023-05-07T12:52:42;5.13;;;3.10;;
15699;SDS011;7950;42.744;23.174;2023-05-07T12:55:12;3.90;;;3.20;;
15699;SDS011;7950;42.744;23.174;2023-05-07T12:57:43;3.40;;;3.10;;
15699;SDS011;7950;42.744;23.174;2023-05-07T13:00:18;5.07;;;3.20;;
15699;SDS011;7950;42.744;23.174;2023-05-07T13:03:01;3.27;;;2.83;;
15699;SDS011;7950;42.744;23.174;2023-05-07T13:05:30;3.33;;;3.03;;
15699;SDS011;7950;42.744;23.174;2023-05-07T13:08:00;3.47;;;3.17;;
15699;SDS011;7950;42.744;23.174;2023-05-07T13:10:28;4.17;;;2.83;;
15699;SDS011;7950;42.744;23.174;2023-05-07T13:12:57;3.30;;;3.00;;
15699;SDS011;7950;42.744;23.174;2023-05-07T13:15:27;3.03;;;2.83;;
15699;SDS011;7950;42.744;23.174;2023-05-07T13:17:56;6.10;;;3.03;;
15699;SDS011;7950;42.744;23.174;2023-05-07T13:20:24;5.30;;;3.27;;
15699;SDS011;7950;42.744;23.174;2023-05-07T13:22:53;3.60;;;3.20;;
15699;SDS011;7950;42.744;23.174;2023-05-07T13:25:21;3.60;;;3.30;;
15699;SDS011;7950;42.744;23.174;2023-05-07T13:27:50;3.30;;;3.00;;
15699;SDS011;7950;42.744;23.174;2023-05-07T13:30:36;4.57;;;3.30;;
15699;SDS011;7950;42.744;23.174;2023-05-07T13:33:05;7.23;;;3.40;;
15699;SDS011;7950;42.744;23.174;2023-05-07T13:35:34;4.03;;;2.80;;
15699;SDS011;7950;42.744;23.174;2023-05-07T13:38:03;3.67;;;2.70;;
15699;SDS011;7950;42.744;23.174;2023-05-07T13:40:31;6.20;;;3.60;;
15699;SDS011;7950;42.744;23.174;2023-05-07T13:43:00;3.67;;;3.30;;
15699;SDS011;7950;42.744;23.174;2023-05-07T13:45:29;3.20;;;3.00;;
15699;SDS011;7950;42.744;23.174;2023-05-07T13:47:59;5.00;;;3.47;;
15699;SDS011;7950;42.744;23.174;2023-05-07T13:50:28;3.93;;;3.47;;
15699;SDS011;7950;42.744;23.174;2023-05-07T13:52:56;4.23;;;3.07;;
15699;SDS011;7950;42.744;23.174;2023-05-07T13:55:25;4.00;;;2.83;;
15699;SDS011;7950;42.744;23.174;2023-05-07T13:57:56;3.30;;;3.00;;
15699;SDS011;7950;42.744;23.174;2023-05-07T14:00:27;4.30;;;2.97;;
15699;SDS011;7950;42.744;23.174;2023-05-07T14:02:56;3.40;;;3.10;;
15699;SDS011;7950;42.744;23.174;2023-05-07T14:05:26;2.90;;;2.70;;
15699;SDS011;7950;42.744;23.174;2023-05-07T14:07:55;3.47;;;3.17;;
15699;SDS011;7950;42.744;23.174;2023-05-07T14:10:25;3.40;;;3.20;;
15699;SDS011;7950;42.744;23.174;2023-05-07T14:12:54;3.47;;;3.17;;
15699;SDS011;7950;42.744;23.174;2023-05-07T14:15:23;3.23;;;2.97;;
15699;SDS011;7950;42.744;23.174;2023-05-07T14:17:51;3.30;;;3.00;;
15699;SDS011;7950;42.744;23.174;2023-05-07T14:20:21;3.33;;;3.03;;
15699;SDS011;7950;42.744;23.174;2023-05-07T14:22:50;3.80;;;2.97;;
15699;SDS011;7950;42.744;23.174;2023-05-07T14:25:18;5.00;;;3.03;;
15699;SDS011;7950;42.744;23.174;2023-05-07T14:27:47;3.20;;;2.90;;
15699;SDS011;7950;42.744;23.174;2023-05-07T14:30:15;4.63;;;3.10;;
15699;SDS011;7950;42.744;23.174;2023-05-07T14:32:44;3.47;;;3.17;;
15699;SDS011;7950;42.744;23.174;2023-05-07T14:35:12;3.90;;;3.07;;
15699;SDS011;7950;42.744;23.174;2023-05-07T14:37:50;4.50;;;3.00;;
15699;SDS011;7950;42.744;23.174;2023-05-07T14:40:19;3.30;;;3.10;;
15699;SDS011;7950;42.744;23.174;2023-05-07T14:42:47;3.83;;;3.07;;
15699;SDS011;7950;42.744;23.174;2023-05-07T14:45:16;3.20;;;3.00;;
15699;SDS011;7950;42.744;23.174;2023-05-07T14:47:44;3.23;;;3.00;;
15699;SDS011;7950;42.744;23.174;2023-05-07T14:50:13;3.40;;;3.10;;
15699;SDS011;7950;42.744;23.174;2023-05-07T14:52:41;3.97;;;3.00;;
15699;SDS011;7950;42.744;23.174;2023-05-07T14:55:11;3.57;;;3.27;;
15699;SDS011;7950;42.744;23.174;2023-05-07T14:57:40;3.40;;;3.10;;
15699;SDS011;7950;42.744;23.174;2023-05-07T15:00:09;4.40;;;3.30;;
15699;SDS011;7950;42.744;23.174;2023-05-07T15:02:39;4.27;;;3.00;;
15699;SDS011;7950;42.744;23.174;2023-05-07T15:05:08;4.50;;;3.37;;
15699;SDS011;7950;42.744;23.174;2023-05-07T15:07:37;4.03;;;2.80;;
15699;SDS011;7950;42.744;23.174;2023-05-07T15:10:05;3.10;;;2.90;;
15699;SDS011;7950;42.744;23.174;2023-05-07T15:12:36;3.43;;;3.13;;
15699;SDS011;7950;42.744;23.174;2023-05-07T15:15:05;3.90;;;3.23;;
15699;SDS011;7950;42.744;23.174;2023-05-07T15:17:36;6.37;;;5.57;;
15699;SDS011;7950;42.744;23.174;2023-05-07T15:20:05;9.67;;;6.00;;
15699;SDS011;7950;42.744;23.174;2023-05-07T15:22:35;4.37;;;3.97;;
15699;SDS011;7950;42.744;23.174;2023-05-07T15:25:04;4.10;;;3.30;;
15699;SDS011;7950;42.744;23.174;2023-05-07T15:27:36;3.17;;;2.87;;
15699;SDS011;7950;42.744;23.174;2023-05-07T15:30:05;3.73;;;3.33;;
15699;SDS011;7950;42.744;23.174;2023-05-07T15:32:36;3.90;;;2.80;;
15699;SDS011;7950;42.744;23.174;2023-05-07T15:35:06;3.70;;;3.07;;
15699;SDS011;7950;42.744;23.174;2023-05-07T15:37:37;3.57;;;3.23;;